createdAt,value
2022-08-07T00:01:43.180Z,67.43
2022-08-07T00:03:53.096Z,68.08
2022-08-07T00:06:29.569Z,68.14
2022-08-07T00:09:17.169Z,68.28
2022-08-07T00:11:54.242Z,68.81
2022-08-07T00:14:30.107Z,69.28
2022-08-07T00:16:56.999Z,69.34
2022-08-07T00:19:25.943Z,69.12
2022-08-07T00:22:02.370Z,69.54
2022-08-07T00:24:31.582Z,69.59
2022-08-07T00:27:06.264Z,69.64
2022-08-07T00:29:37.121Z,69.43
2022-08-07T00:32:04.561Z,70.00
2022-08-07T00:34:32.729Z,69.45
2022-08-07T00:37:02.276Z,69.95
2022-08-07T00:39:32.498Z,70.17
2022-08-07T00:42:02.332Z,70.03
2022-08-07T00:44:33.077Z,69.87
2022-08-07T00:47:01.828Z,70.65
2022-08-07T00:50:19.215Z,71.31
2022-08-07T00:52:17.604Z,71.30
2022-08-07T00:54:47.176Z,71.79
2022-08-07T00:57:21.992Z,71.74
2022-08-07T00:59:49.263Z,71.75
2022-08-07T01:02:28.854Z,71.42
2022-08-07T01:04:58.791Z,72.18
2022-08-07T01:07:27.801Z,72.42
2022-08-07T01:10:06.537Z,71.80
2022-08-07T01:12:44.767Z,71.88
2022-08-07T01:15:20.633Z,72.25
2022-08-07T01:17:48.802Z,72.02
2022-08-07T01:20:18.210Z,72.10
2022-08-07T01:23:00.466Z,72.64
2022-08-07T01:25:54.810Z,72.42
2022-08-07T01:28:21.808Z,72.84
2022-08-07T01:30:52.094Z,73.44
2022-08-07T01:33:20.349Z,73.55
2022-08-07T01:35:54.551Z,73.66
2022-08-07T01:38:36.710Z,73.89
2022-08-07T01:41:13.250Z,74.12
2022-08-07T01:43:54.551Z,73.57
2022-08-07T01:46:21.543Z,74.15
2022-08-07T01:48:48.872Z,74.59
2022-08-07T01:52:01.054Z,74.56
2022-08-07T01:54:33.111Z,74.54
2022-08-07T01:57:06.870Z,74.62
2022-08-07T01:59:42.210Z,74.64
2022-08-07T02:02:32.925Z,75.12
2022-08-07T02:05:15.770Z,75.19
2022-08-07T02:08:03.400Z,75.46
2022-08-07T02:10:42.279Z,74.86
2022-08-07T02:13:13.095Z,75.33
2022-08-07T02:15:50.277Z,75.82
2022-08-07T02:18:21.965Z,75.51
2022-08-07T02:20:57.376Z,75.65
2022-08-07T02:23:25.851Z,75.45
2022-08-07T02:26:26.623Z,75.51
2022-08-07T02:28:45.545Z,75.49
2022-08-07T02:31:28.726Z,76.46
2022-08-07T02:34:03.508Z,76.88
2022-08-07T02:36:38.028Z,76.95
2022-08-07T02:39:17.176Z,76.60
2022-08-07T02:42:02.755Z,77.76
2022-08-07T02:44:34.492Z,77.94
2022-08-07T02:47:05.620Z,77.72
2022-08-07T02:49:55.923Z,77.78
2022-08-07T02:52:34.443Z,77.43
2022-08-07T02:55:27.893Z,77.55
2022-08-07T02:58:03.531Z,78.17
2022-08-07T03:00:34.143Z,77.14
2022-08-07T03:03:05.866Z,77.06
2022-08-07T03:05:37.114Z,78.12
2022-08-07T03:08:09.519Z,78.37
2022-08-07T03:10:46.690Z,78.64
2022-08-07T03:13:19.285Z,78.40
2022-08-07T03:15:54.125Z,78.91
2022-08-07T03:18:34.844Z,78.95
2022-08-07T03:21:05.051Z,78.69
2022-08-07T03:24:18.219Z,78.18
2022-08-07T03:26:29.882Z,78.56
2022-08-07T03:29:00.651Z,79.58
2022-08-07T03:31:42.561Z,79.47
2022-08-07T03:34:18.712Z,79.54
2022-08-07T03:36:52.832Z,79.95
2022-08-07T03:39:59.491Z,79.82
2022-08-07T03:42:11.854Z,79.76
2022-08-07T03:44:42.001Z,79.90
2022-08-07T03:47:14.455Z,79.62
2022-08-07T03:49:47.648Z,79.36
2022-08-07T03:52:22.518Z,79.57
2022-08-07T03:54:54.235Z,79.14
2022-08-07T03:58:33.045Z,79.64
2022-08-07T04:00:15.072Z,79.56
2022-08-07T04:02:49.493Z,80.26
2022-08-07T04:05:41.959Z,80.24
2022-08-07T04:08:18.657Z,80.57
2022-08-07T04:10:54.649Z,81.16
2022-08-07T04:14:09.981Z,81.17
2022-08-07T04:16:31.576Z,80.70
2022-08-07T04:19:04.319Z,80.52
2022-08-07T04:21:58.775Z,80.86
2022-08-07T04:24:33.987Z,80.60
2022-08-07T04:27:04.956Z,81.04
2022-08-07T04:29:48.956Z,81.03
2022-08-07T04:32:33.873Z,81.42
2022-08-07T04:35:01.889Z,81.90
2022-08-07T04:37:52.705Z,81.69
2022-08-07T04:40:18.114Z,81.95
2022-08-07T04:42:46.610Z,81.74
2022-08-07T04:45:44.514Z,81.21
2022-08-07T04:48:12.948Z,80.53
2022-08-07T04:50:45.037Z,79.51
2022-08-07T04:53:40.286Z,78.21
2022-08-07T04:58:09.995Z,77.73
2022-08-07T05:00:11.605Z,76.87
2022-08-07T05:02:05.987Z,76.99
2022-08-07T05:04:47.103Z,76.67
2022-08-07T05:07:28.999Z,76.44
2022-08-07T05:10:08.630Z,76.46
2022-08-07T05:12:52.831Z,76.22
2022-08-07T05:15:26.636Z,76.26
2022-08-07T05:18:00.740Z,76.77
2022-08-07T05:20:37.795Z,77.08
2022-08-07T05:23:15.637Z,76.97
2022-08-07T05:26:13.492Z,76.78
2022-08-07T05:28:35.419Z,77.00
2022-08-07T05:31:03.914Z,76.91
2022-08-07T05:33:35.637Z,76.74
2022-08-07T05:36:12.279Z,77.04
2022-08-07T05:39:00.201Z,76.78
2022-08-07T05:42:02.238Z,77.17
2022-08-07T05:44:18.893Z,76.33
2022-08-07T05:46:57.376Z,76.60
2022-08-07T05:49:27.964Z,76.79
2022-08-07T05:52:11.492Z,76.51
2022-08-07T05:54:53.173Z,76.41
2022-08-07T05:57:21.953Z,76.40
2022-08-07T05:59:57.576Z,76.07
2022-08-07T06:02:31.706Z,76.17
2022-08-07T06:05:07.088Z,76.06
2022-08-07T06:08:13.921Z,75.55
2022-08-07T06:10:25.365Z,75.41
2022-08-07T06:12:53.551Z,75.21
2022-08-07T06:15:22.760Z,74.79
2022-08-07T06:18:12.181Z,74.94
2022-08-07T06:20:50.276Z,74.34
2022-08-07T06:24:37.419Z,73.76
2022-08-07T06:26:16.792Z,73.46
2022-08-07T06:28:52.932Z,73.15
2022-08-07T06:31:21.250Z,72.82
2022-08-07T06:34:05.239Z,72.66
2022-08-07T06:36:35.270Z,71.92
2022-08-07T06:40:17.800Z,70.57
2022-08-07T06:42:02.156Z,69.72
2022-08-07T06:44:57.346Z,69.59
2022-08-07T06:47:26.876Z,69.32
2022-08-07T06:49:58.741Z,68.51
2022-08-07T06:52:36.597Z,67.72
2022-08-07T06:55:31.422Z,67.18
2022-08-07T06:58:02.223Z,66.76
2022-08-07T07:00:37.250Z,66.92
2022-08-07T07:03:10.839Z,65.59
2022-08-07T07:06:02.706Z,64.39
2022-08-07T07:08:29.612Z,63.61
2022-08-07T07:11:00.870Z,63.22
2022-08-07T07:13:55.934Z,62.22
2022-08-07T07:16:27.549Z,60.65
2022-08-07T07:19:11.178Z,60.21
2022-08-07T07:22:05.309Z,60.07
2022-08-07T07:24:37.174Z,58.95
2022-08-07T07:27:07.719Z,58.64
2022-08-07T07:30:08.617Z,58.14
2022-08-07T07:32:33.753Z,57.98
2022-08-07T07:35:03.837Z,57.94
2022-08-07T07:37:47.517Z,56.86
2022-08-07T07:40:25.241Z,55.88
2022-08-07T07:42:57.498Z,54.38
2022-08-07T07:46:36.787Z,54.77
2022-08-07T07:48:24.046Z,54.63
2022-08-07T07:51:03.300Z,54.03
2022-08-07T07:53:43.000Z,53.73
2022-08-07T07:56:30.545Z,53.36
2022-08-07T07:59:01.969Z,52.47
2022-08-07T08:02:02.170Z,52.40
2022-08-07T08:04:18.314Z,51.86
2022-08-07T08:06:50.908Z,51.24
2022-08-07T08:09:22.952Z,51.21
2022-08-07T08:12:02.487Z,50.82
2022-08-07T08:14:36.209Z,50.06
2022-08-07T08:17:55.935Z,50.06
2022-08-07T08:20:22.880Z,48.30
2022-08-07T08:22:55.675Z,48.56
2022-08-07T08:25:42.890Z,47.86
2022-08-07T08:28:16.830Z,47.55
2022-08-07T08:30:55.689Z,46.98
2022-08-07T08:33:24.275Z,47.67
2022-08-07T08:35:57.558Z,44.94
2022-08-07T08:38:29.961Z,45.13
2022-08-07T08:41:08.041Z,44.99
2022-08-07T08:43:55.909Z,45.17
2022-08-07T08:46:36.523Z,44.78
2022-08-07T08:49:10.195Z,44.20
2022-08-07T08:52:13.075Z,43.55
2022-08-07T08:54:41.427Z,42.80
2022-08-07T08:57:13.960Z,43.01
2022-08-07T08:59:50.196Z,43.05
2022-08-07T09:02:35.275Z,42.34
2022-08-07T09:05:21.546Z,42.02
2022-08-07T09:08:02.555Z,41.76
2022-08-07T09:10:38.983Z,42.08
2022-08-07T09:13:16.851Z,41.47
2022-08-07T09:16:25.762Z,41.75
2022-08-07T09:19:03.459Z,41.53
2022-08-07T09:22:09.667Z,40.81
2022-08-07T09:24:55.395Z,40.43
2022-08-07T09:27:54.554Z,39.16
2022-08-07T09:30:25.549Z,39.03
2022-08-07T09:33:16.766Z,38.83
2022-08-07T09:36:02.738Z,38.01
2022-08-07T09:38:42.537Z,37.51
2022-08-07T09:41:28.045Z,37.80
2022-08-07T09:44:19.333Z,36.30
2022-08-07T09:47:50.138Z,36.01
2022-08-07T09:50:18.450Z,35.58
2022-08-07T09:52:51.929Z,36.30
2022-08-07T09:55:29.554Z,36.42
2022-08-07T09:58:51.363Z,35.28
2022-08-07T10:01:51.302Z,35.46
2022-08-07T10:04:33.553Z,34.51
2022-08-07T10:07:52.548Z,34.06
2022-08-07T10:10:30.340Z,33.57
2022-08-07T10:14:00.790Z,32.09
2022-08-07T10:16:37.023Z,31.88
2022-08-07T10:19:51.397Z,31.79
2022-08-07T10:22:53.214Z,32.69
2022-08-07T10:25:42.084Z,32.30
2022-08-07T10:28:40.180Z,32.06
2022-08-07T10:31:31.489Z,31.06
2022-08-07T10:34:27.308Z,31.33
2022-08-07T10:37:12.763Z,31.04
2022-08-07T10:40:03.322Z,31.50
2022-08-07T10:42:39.997Z,32.05
2022-08-07T10:45:17.147Z,31.88
2022-08-07T10:48:02.782Z,31.01
2022-08-07T10:50:35.198Z,30.40
2022-08-07T10:53:09.061Z,29.43
2022-08-07T10:55:48.923Z,29.00
2022-08-07T10:58:36.425Z,29.04
2022-08-07T11:01:51.979Z,28.82
2022-08-07T11:04:37.737Z,28.93
2022-08-07T11:07:24.762Z,29.13
2022-08-07T11:10:09.159Z,29.62
2022-08-07T11:12:43.396Z,28.85
2022-08-07T11:15:17.893Z,29.32
2022-08-07T11:17:49.537Z,29.25
2022-08-07T11:20:22.541Z,28.77
2022-08-07T11:22:58.134Z,28.63
2022-08-07T11:25:36.072Z,28.51
2022-08-07T11:28:15.577Z,27.67
2022-08-07T11:30:55.741Z,27.74
2022-08-07T11:33:58.428Z,27.98
2022-08-07T11:36:30.783Z,27.85
2022-08-07T11:39:09.428Z,28.03
2022-08-07T11:42:01.795Z,27.54
2022-08-07T11:44:39.320Z,27.13
2022-08-07T11:47:39.221Z,27.40
2022-08-07T11:50:32.472Z,27.51
2022-08-07T11:53:09.903Z,26.86
2022-08-07T11:56:09.336Z,26.43
2022-08-07T11:58:53.950Z,25.83
2022-08-07T12:01:59.628Z,25.60
2022-08-07T12:04:56.834Z,25.30
2022-08-07T12:07:27.243Z,25.47
2022-08-07T12:09:56.962Z,25.42
2022-08-07T12:12:27.689Z,25.01
2022-08-07T12:15:01.957Z,25.82
2022-08-07T12:17:37.234Z,24.70
2022-08-07T12:20:29.687Z,24.57
2022-08-07T12:24:06.305Z,24.39
2022-08-07T12:26:29.984Z,24.75
2022-08-07T12:29:07.186Z,24.64
2022-08-07T12:31:52.779Z,25.15
2022-08-07T12:34:29.015Z,24.96
2022-08-07T12:36:59.302Z,24.04
2022-08-07T12:39:44.087Z,23.87
2022-08-07T12:42:27.116Z,24.11
2022-08-07T12:44:58.401Z,24.01
2022-08-07T12:47:32.676Z,23.77
2022-08-07T12:50:34.283Z,23.88
2022-08-07T12:53:17.464Z,23.61
2022-08-07T12:56:02.905Z,23.29
2022-08-07T12:58:35.668Z,23.46
2022-08-07T13:01:08.549Z,23.22
2022-08-07T13:04:06.581Z,22.82
2022-08-07T13:07:00.126Z,22.73
2022-08-07T13:10:20.869Z,23.12
2022-08-07T13:12:43.798Z,22.90
2022-08-07T13:15:29.679Z,23.46
2022-08-07T13:18:26.050Z,22.76
2022-08-07T13:20:59.020Z,22.66
2022-08-07T13:24:02.258Z,23.04
2022-08-07T13:26:30.243Z,22.19
2022-08-07T13:29:10.107Z,21.90
2022-08-07T13:31:54.850Z,21.80
2022-08-07T13:34:35.547Z,21.78
2022-08-07T13:37:10.973Z,21.72
2022-08-07T13:40:35.128Z,21.19
2022-08-07T13:42:58.278Z,21.25
2022-08-07T13:46:23.975Z,21.49
2022-08-07T13:48:20.603Z,21.10
2022-08-07T13:51:01.418Z,20.86
2022-08-07T13:53:55.062Z,20.36
2022-08-07T13:56:20.054Z,20.61
2022-08-07T13:59:12.060Z,20.40
2022-08-07T14:01:59.259Z,19.97
2022-08-07T14:04:35.576Z,20.02
2022-08-07T14:07:09.537Z,20.18
2022-08-07T14:10:17.347Z,20.48
2022-08-07T14:12:30.689Z,20.29
2022-08-07T14:15:04.969Z,20.14
2022-08-07T14:18:23.706Z,20.31
2022-08-07T14:20:42.284Z,21.05
2022-08-07T14:23:17.988Z,20.51
2022-08-07T14:26:04.300Z,20.42
2022-08-07T14:28:57.416Z,19.72
2022-08-07T14:31:24.318Z,19.63
2022-08-07T14:33:52.787Z,19.19
2022-08-07T14:36:20.968Z,19.16
2022-08-07T14:38:52.403Z,18.95
2022-08-07T14:44:20.001Z,19.11
2022-08-07T14:47:08.401Z,18.72
2022-08-07T14:49:56.611Z,18.73
2022-08-07T14:52:31.230Z,18.68
2022-08-07T14:55:00.349Z,19.05
2022-08-07T14:57:58.558Z,17.99
2022-08-07T15:00:29.655Z,17.87
2022-08-07T15:03:18.866Z,17.66
2022-08-07T15:05:54.155Z,18.00
2022-08-07T15:08:32.260Z,17.79
2022-08-07T15:11:02.658Z,17.81
2022-08-07T15:13:35.918Z,17.53
2022-08-07T15:16:11.209Z,16.93
2022-08-07T15:18:43.941Z,17.34
2022-08-07T15:25:14.053Z,17.12
2022-08-07T15:26:57.416Z,17.25
2022-08-07T15:30:08.586Z,17.39
2022-08-07T15:32:39.965Z,17.86
2022-08-07T15:38:30.071Z,17.39
2022-08-07T15:41:24.382Z,17.77
2022-08-07T15:43:56.527Z,17.42
2022-08-07T15:46:31.222Z,17.56
2022-08-07T15:49:12.868Z,17.06
2022-08-07T15:54:27.297Z,15.93
2022-08-07T15:56:59.279Z,16.35
2022-08-07T15:59:39.594Z,16.11
2022-08-07T16:02:22.282Z,16.88
2022-08-07T16:04:55.987Z,16.49
2022-08-07T16:08:29.097Z,16.08
2022-08-07T16:10:20.550Z,15.91
2022-08-07T16:13:05.687Z,16.02
2022-08-07T16:15:57.345Z,15.81
2022-08-07T16:18:50.842Z,15.81
2022-08-07T16:22:03.227Z,15.85
2022-08-07T16:24:34.548Z,15.36
2022-08-07T16:27:17.843Z,16.03
2022-08-07T16:30:29.279Z,15.52
2022-08-07T16:33:00.631Z,15.62
2022-08-07T16:35:59.710Z,15.13
2022-08-07T16:38:59.853Z,15.47
2022-08-07T16:41:41.786Z,15.50
2022-08-07T16:45:19.109Z,15.18
2022-08-07T16:47:56.812Z,15.33
2022-08-07T16:51:20.498Z,14.99
2022-08-07T16:53:57.197Z,15.15
2022-08-07T16:56:48.763Z,14.80
2022-08-07T16:59:26.295Z,15.11
2022-08-07T17:02:51.343Z,15.02
2022-08-07T17:06:02.139Z,14.80
2022-08-07T17:08:19.418Z,15.44
2022-08-07T17:10:56.279Z,15.20
2022-08-07T17:14:19.333Z,15.47
2022-08-07T17:16:44.538Z,14.85
2022-08-07T17:20:02.432Z,14.90
2022-08-07T17:22:30.179Z,14.82
2022-08-07T17:25:13.441Z,15.08
2022-08-07T17:27:54.041Z,15.05
2022-08-07T17:30:27.253Z,15.35
2022-08-07T17:33:39.271Z,15.51
2022-08-07T17:36:13.536Z,15.93
2022-08-07T17:38:54.342Z,16.47
2022-08-07T17:42:03.778Z,16.52
2022-08-07T17:44:34.196Z,16.77
2022-08-07T17:47:42.159Z,16.59
2022-08-07T17:50:16.440Z,17.05
2022-08-07T17:52:49.295Z,17.43
2022-08-07T17:56:00.547Z,17.33
2022-08-07T17:58:30.536Z,17.81
2022-08-07T18:01:02.580Z,18.36
2022-08-07T18:04:06.793Z,18.93
2022-08-07T18:06:37.046Z,19.86
2022-08-07T18:09:07.219Z,20.42
2022-08-07T18:12:16.451Z,20.87
2022-08-07T18:14:37.599Z,21.46
2022-08-07T18:17:10.694Z,22.31
2022-08-07T18:21:12.558Z,22.92
2022-08-07T18:22:35.571Z,23.34
2022-08-07T18:25:19.430Z,23.75
2022-08-07T18:28:15.261Z,24.26
2022-08-07T18:31:04.159Z,24.75
2022-08-07T18:34:04.409Z,25.03
2022-08-07T18:37:09.573Z,25.66
2022-08-07T18:40:07.757Z,25.73
2022-08-07T18:42:44.480Z,26.07
2022-08-07T18:45:44.364Z,26.27
2022-08-07T18:48:08.060Z,26.88
2022-08-07T18:50:57.196Z,27.07
2022-08-07T18:53:44.871Z,27.54
2022-08-07T18:56:32.881Z,28.13
2022-08-07T18:59:47.456Z,28.67
2022-08-07T19:02:36.638Z,29.20
2022-08-07T19:05:16.120Z,29.96
2022-08-07T19:07:57.449Z,30.23
2022-08-07T19:10:31.475Z,29.96
2022-08-07T19:13:10.267Z,31.06
2022-08-07T19:16:04.497Z,31.29
2022-08-07T19:18:44.910Z,31.25
2022-08-07T19:21:44.245Z,31.15
2022-08-07T19:58:52.300Z,42.51
2022-08-07T20:01:21.683Z,43.00
2022-08-07T20:03:51.668Z,43.01
2022-08-07T20:06:30.388Z,43.46
2022-08-07T20:08:58.592Z,43.66
2022-08-07T20:12:01.564Z,43.90
2022-08-07T20:14:31.323Z,43.88
2022-08-07T20:17:03.213Z,44.13
2022-08-07T20:19:48.252Z,44.43
2022-08-07T20:22:29.207Z,44.58
2022-08-07T20:25:06.145Z,44.57
2022-08-07T20:27:46.140Z,45.25
2022-08-07T20:30:21.745Z,45.57
2022-08-07T20:32:54.582Z,45.36
2022-08-07T20:35:26.193Z,45.19
2022-08-07T20:37:58.915Z,45.65
2022-08-07T20:40:32.493Z,45.65
2022-08-07T20:43:14.512Z,45.70
2022-08-07T20:46:28.203Z,46.28
2022-08-07T20:48:57.893Z,46.70
2022-08-07T20:51:31.239Z,47.12
2022-08-07T20:54:09.229Z,47.48
2022-08-07T20:56:40.707Z,47.52
2022-08-07T21:00:05.204Z,47.74
2022-08-07T21:02:02.785Z,47.77
2022-08-07T21:04:36.091Z,48.35
2022-08-07T21:07:04.270Z,48.64
2022-08-07T21:09:52.049Z,48.61
2022-08-07T21:12:31.029Z,49.13
2022-08-07T21:15:03.388Z,49.57
2022-08-07T21:18:03.738Z,49.69
2022-08-07T21:20:26.846Z,49.91
2022-08-07T21:23:07.583Z,49.75
2022-08-07T21:25:56.265Z,50.29
2022-08-07T21:28:48.516Z,50.31
2022-08-07T21:31:31.459Z,50.96
2022-08-07T21:34:26.755Z,50.90
2022-08-07T21:37:03.452Z,50.98
2022-08-07T21:39:45.159Z,51.32
2022-08-07T21:46:08.016Z,51.38
2022-08-07T21:48:28.706Z,51.32
2022-08-07T21:51:02.047Z,51.14
2022-08-07T21:53:37.078Z,51.47
2022-08-07T21:56:37.687Z,51.82
2022-08-07T21:59:15.976Z,52.26
2022-08-07T22:02:10.769Z,53.08
2022-08-07T22:04:53.608Z,54.34
2022-08-07T22:07:31.892Z,54.41
2022-08-07T22:10:12.719Z,54.59
2022-08-07T22:12:45.966Z,54.96
2022-08-07T22:16:43.878Z,54.90
2022-08-07T22:18:06.483Z,55.25
2022-08-07T22:20:40.977Z,55.72
2022-08-07T22:23:17.122Z,55.48
2022-08-07T22:26:01.329Z,56.47
2022-08-07T22:28:37.132Z,56.79
2022-08-07T22:31:45.615Z,56.64
2022-08-07T22:34:09.775Z,57.10
2022-08-07T22:36:47.425Z,57.82
2022-08-07T22:39:51.823Z,57.75
2022-08-07T22:42:53.954Z,58.61
2022-08-07T22:45:10.965Z,58.76
2022-08-07T22:48:31.511Z,59.37
2022-08-07T22:51:14.789Z,59.08
2022-08-07T22:54:07.137Z,59.31
2022-08-07T22:56:51.075Z,59.14
2022-08-07T22:59:49.739Z,59.62
2022-08-07T23:02:29.944Z,60.18
2022-08-07T23:06:09.290Z,60.29
2022-08-07T23:08:23.970Z,60.42
2022-08-07T23:11:10.318Z,61.35
2022-08-07T23:14:10.529Z,61.43
2022-08-07T23:16:59.277Z,61.98
2022-08-07T23:19:51.769Z,62.38
2022-08-07T23:22:30.355Z,62.36
2022-08-07T23:25:11.314Z,62.28
2022-08-07T23:28:21.845Z,62.86
2022-08-07T23:31:07.155Z,62.73
2022-08-07T23:34:35.434Z,63.29
2022-08-07T23:37:19.547Z,62.93
2022-08-07T23:39:47.865Z,63.58
2022-08-07T23:42:30.487Z,63.11
2022-08-07T23:45:15.498Z,63.04
2022-08-07T23:48:27.180Z,63.71
2022-08-07T23:50:59.598Z,63.57
2022-08-07T23:53:49.454Z,63.96
2022-08-07T23:56:26.706Z,64.35
2022-08-07T23:59:10.774Z,64.52
